Time;durP1;ratioP1;P1;durP2;ratioP2;P2;SDS_P1;SDS_P2;PMS_P1;PMS_P2;Temp;Humidity;BMP_temperature;BMP_pressure;BME280_temperature;BME280_humidity;BME280_pressure;Samples;Min_cycle;Max_cycle;Signal;HPM_P1;HPM_P2
2022/09/16 00:02:43;;;;;;;;;;;;;;;21.02;54.04;99823.80;2287380;77;51483;-78
2022/09/16 00:05:45;;;;;;;;;;;;;;;21.01;54.04;99811.37;2287457;77;51574;-78
2022/09/16 00:08:47;;;;;;;;;;;;;;;21.00;54.06;99817.28;2302396;76;52729;-78
2022/09/16 00:11:49;;;;;;;;;;;;;;;21.00;54.06;99828.05;2306556;74;50341;-78
2022/09/16 00:14:52;;;;;;;;;;;;;;;21.02;53.99;99818.42;2293600;76;50667;-77
2022/09/16 00:17:53;;;;;;;;;;;;;;;20.99;54.05;99818.34;2316760;76;50776;-77
2022/09/16 00:20:55;;;;;;;;;;;;;;;21.00;54.02;99825.87;2319752;76;50063;-78
2022/09/16 00:23:57;;;;;;;;;;;;;;;20.99;54.03;99822.87;2293587;76;51535;-77
2022/09/16 00:26:58;;;;;;;;;;;;;;;20.98;54.01;99826.09;2317724;76;50794;-77
2022/09/16 00:30:00;;;;;;;;;;;;;;;20.97;54.04;99821.77;2317772;76;51538;-78
2022/09/16 00:33:01;;;;;;;;;;;;;;;20.98;54.00;99823.39;2319666;76;52425;-78
2022/09/16 00:36:07;;;;;;;;;;;;;;;20.98;54.02;99827.95;2319733;76;51810;-78
2022/09/16 00:39:08;;;;;;;;;;;;;;;20.97;54.03;99818.25;2307155;76;51611;-79
2022/09/16 00:42:10;;;;;;;;;;;;;;;20.96;53.97;99821.47;2268539;76;51562;-78
2022/09/16 00:45:22;;;;;;;;;;;;;;;20.97;53.97;99815.03;2262175;78;50111;-78
2022/09/16 00:48:24;;;;;;;;;;;;;;;20.94;54.02;99823.55;2251386;79;51450;-78
2022/09/16 00:51:25;;;;;;;;;;;;;;;20.95;54.04;99828.40;2251330;79;51516;-79
2022/09/16 00:54:27;;;;;;;;;;;;;;;20.95;54.03;99829.75;2251139;79;51507;-79
2022/09/16 00:57:29;;;;;;;;;;;;;;;20.94;53.99;99827.58;2262310;78;50250;-78
2022/09/16 01:00:30;;;;;;;;;;;;;;;20.93;54.01;99832.64;2251495;79;50383;-78
2022/09/16 01:03:35;;;;;;;;;;;;;;;20.93;53.98;99829.95;2251285;78;50426;-79
2022/09/16 01:06:38;;;;;;;;;;;;;;;20.95;53.95;99827.88;2250927;79;50774;-78
2022/09/16 01:09:40;;;;;;;;;;;;;;;20.96;53.94;99832.23;2327399;75;50150;-77
2022/09/16 01:12:43;;;;;;;;;;;;;;;20.94;53.96;99832.96;2309277;75;50831;-78
2022/09/16 01:16:02;;;;;;;;;;;;;;;20.93;53.97;99832.64;2281366;76;50873;-78
2022/09/16 01:19:15;;;;;;;;;;;;;;;20.93;53.96;99831.30;2279045;78;51547;-77
2022/09/16 01:22:35;;;;;;;;;;;;;;;20.91;54.00;99830.72;2250037;77;51031;-78
2022/09/16 01:25:55;;;;;;;;;;;;;;;20.93;53.93;99833.16;2279195;78;51563;-77
2022/09/16 01:29:15;;;;;;;;;;;;;;;20.92;53.93;99832.35;2279144;78;50413;-78
2022/09/16 01:32:19;;;;;;;;;;;;;;;20.91;53.93;99830.72;2279074;78;51390;-77
2022/09/16 01:35:32;;;;;;;;;;;;;;;20.92;53.91;99826.16;2255593;78;49729;-78
2022/09/16 01:38:41;;;;;;;;;;;;;;;20.91;53.94;99837.44;2278953;77;51584;-77
2022/09/16 01:41:47;;;;;;;;;;;;;;;20.90;53.94;99835.77;2285380;77;50776;-77
2022/09/16 01:44:52;;;;;;;;;;;;;;;20.90;53.93;99834.42;2304050;75;50525;-78
2022/09/16 01:47:56;;;;;;;;;;;;;;;20.90;53.93;99831.73;2297899;76;51843;-78
2022/09/16 01:50:59;;;;;;;;;;;;;;;20.88;53.97;99832.47;2279119;78;50317;-78
2022/09/16 01:54:03;;;;;;;;;;;;;;;20.88;53.92;99833.81;2278959;78;50794;-78
2022/09/16 01:57:06;;;;;;;;;;;;;;;20.90;53.92;99830.39;2279393;78;50844;-78
2022/09/16 02:00:09;;;;;;;;;;;;;;;20.87;53.91;99824.93;2281073;78;50157;-78
2022/09/16 02:03:21;;;;;;;;;;;;;;;20.88;53.89;99829.28;2279060;78;52588;-77
2022/09/16 02:06:22;;;;;;;;;;;;;;;20.85;53.90;99823.50;2279071;78;50808;-77
2022/09/16 02:09:26;;;;;;;;;;;;;;;20.88;53.88;99831.13;2279112;78;50726;-77
2022/09/16 02:12:29;;;;;;;;;;;;;;;20.87;53.89;99824.11;2291713;76;52552;-78
2022/09/16 02:15:30;;;;;;;;;;;;;;;20.89;53.81;99830.10;2312882;76;50337;-78
2022/09/16 02:18:33;;;;;;;;;;;;;;;20.85;53.86;99819.47;2317635;76;50771;-77
2022/09/16 02:21:35;;;;;;;;;;;;;;;20.87;53.84;99820.08;2317607;76;51605;-77
2022/09/16 02:24:37;;;;;;;;;;;;;;;20.88;53.84;99825.75;2319384;76;49600;-77
2022/09/16 02:27:39;;;;;;;;;;;;;;;20.90;53.79;99827.70;2317577;76;51504;-77
2022/09/16 02:30:42;;;;;;;;;;;;;;;20.87;53.79;99816.05;2294639;76;50412;-77
2022/09/16 02:33:49;;;;;;;;;;;;;;;20.84;53.83;99817.83;2312387;76;51606;-77
2022/09/16 02:36:52;;;;;;;;;;;;;;;20.84;53.80;99815.96;2301705;76;48853;-76
2022/09/16 02:39:56;;;;;;;;;;;;;;;20.84;53.80;99820.00;2251651;76;51572;-78
2022/09/16 02:42:58;;;;;;;;;;;;;;;20.86;53.77;99817.09;2250854;79;51500;-78
2022/09/16 02:46:17;;;;;;;;;;;;;;;20.85;53.81;99811.41;2250620;79;52437;-78
2022/09/16 02:49:33;;;;;;;;;;;;;;;20.84;53.77;99811.92;2261827;78;50159;-77
2022/09/16 02:52:45;;;;;;;;;;;;;;;20.87;53.75;99816.05;2251014;76;51705;-78
2022/09/16 02:55:51;;;;;;;;;;;;;;;20.83;53.76;99817.02;2250608;79;51610;-79
2022/09/16 02:58:52;;;;;;;;;;;;;;;20.83;53.73;99814.33;2250875;79;51648;-78
2022/09/16 03:01:54;;;;;;;;;;;;;;;20.83;53.74;99810.79;2261870;78;51749;-77
2022/09/16 03:04:56;;;;;;;;;;;;;;;20.83;53.74;99816.17;2261474;78;49366;-78
2022/09/16 03:07:57;;;;;;;;;;;;;;;20.82;53.75;99819.38;2322495;75;50123;-79
2022/09/16 03:11:00;;;;;;;;;;;;;;;20.82;53.75;99817.22;2374313;75;50368;-77
2022/09/16 03:14:16;;;;;;;;;;;;;;;20.80;53.74;99814.73;2376140;74;52430;-78
2022/09/16 03:17:19;;;;;;;;;;;;;;;20.82;53.72;99823.94;2374355;75;52394;-77
2022/09/16 03:20:22;;;;;;;;;;;;;;;20.81;53.71;99819.09;2374185;75;51535;-77
2022/09/16 03:23:25;;;;;;;;;;;;;;;20.82;53.68;99822.59;2374110;75;50320;-77
2022/09/16 03:26:34;;;;;;;;;;;;;;;20.81;53.69;99822.31;2348728;75;49757;-77
2022/09/16 03:29:40;;;;;;;;;;;;;;;20.79;53.72;99823.04;2374384;75;51566;-78
2022/09/16 03:32:49;;;;;;;;;;;;;;;20.79;53.68;99822.52;2374339;75;51420;-78
2022/09/16 03:35:50;;;;;;;;;;;;;;;20.80;53.68;99814.73;2372231;75;50453;-77
2022/09/16 03:38:52;;;;;;;;;;;;;;;20.81;53.67;99810.21;2306759;75;50403;-78
2022/09/16 03:41:54;;;;;;;;;;;;;;;20.80;53.68;99806.67;2317638;76;50736;-79
2022/09/16 03:44:56;;;;;;;;;;;;;;;20.80;53.63;99817.95;2317439;76;50344;-78
2022/09/16 03:47:57;;;;;;;;;;;;;;;20.81;53.59;99807.52;2317373;76;51511;-77
2022/09/16 03:50:59;;;;;;;;;;;;;;;20.80;53.61;99811.23;2319477;76;52510;-78
2022/09/16 03:54:00;;;;;;;;;;;;;;;20.80;53.63;99810.70;2317074;76;51509;-79
2022/09/16 03:57:02;;;;;;;;;;;;;;;20.79;53.59;99807.73;2317704;76;50375;-78
2022/09/16 04:00:04;;;;;;;;;;;;;;;20.78;53.63;99803.41;2317334;76;50089;-78
2022/09/16 04:03:06;;;;;;;;;;;;;;;20.79;53.61;99805.56;2317611;76;51565;-77
2022/09/16 04:06:08;;;;;;;;;;;;;;;20.80;53.59;99808.55;2294530;76;51553;-79
2022/09/16 04:09:11;;;;;;;;;;;;;;;20.79;53.59;99808.25;2294832;76;51574;-79
2022/09/16 04:12:13;;;;;;;;;;;;;;;20.79;53.61;99806.91;2286901;77;51517;-77
2022/09/16 04:15:14;;;;;;;;;;;;;;;20.79;53.59;99797.50;2260033;78;51008;-78
2022/09/16 04:18:16;;;;;;;;;;;;;;;20.79;53.57;99800.19;2287175;78;50341;-79
2022/09/16 04:21:17;;;;;;;;;;;;;;;20.76;53.59;99796.07;2286781;78;50643;-78
2022/09/16 04:24:19;;;;;;;;;;;;;;;20.76;53.62;99799.28;2286670;78;50713;-78
2022/09/16 04:27:21;;;;;;;;;;;;;;;20.78;53.52;99802.55;2286445;77;50987;-78
2022/09/16 04:30:22;;;;;;;;;;;;;;;20.77;53.55;99803.08;2287079;78;50599;-77
2022/09/16 04:33:28;;;;;;;;;;;;;;;20.76;53.58;99805.48;2286772;77;51481;-78
2022/09/16 04:36:29;;;;;;;;;;;;;;;20.75;53.59;99806.50;2305675;75;50788;-79
2022/09/16 04:39:31;;;;;;;;;;;;;;;20.78;53.50;99810.63;2285365;76;52587;-78
2022/09/16 04:42:33;;;;;;;;;;;;;;;20.75;53.54;99805.16;2277029;78;50354;-78
2022/09/16 04:45:34;;;;;;;;;;;;;;;20.75;53.57;99803.00;2276534;77;50419;-78
2022/09/16 04:48:36;;;;;;;;;;;;;;;20.74;53.59;99801.36;2277008;78;50658;-78
2022/09/16 04:51:37;;;;;;;;;;;;;;;20.74;53.54;99794.11;2251572;78;52025;-78
2022/09/16 04:54:39;;;;;;;;;;;;;;;20.75;53.51;99800.31;2276829;77;53704;-78
2022/09/16 04:57:41;;;;;;;;;;;;;;;20.74;53.51;99784.70;2276784;77;50556;-78
2022/09/16 05:00:42;;;;;;;;;;;;;;;20.74;53.54;99789.27;2277121;78;50399;-78
2022/09/16 05:03:45;;;;;;;;;;;;;;;20.74;53.53;99795.98;2293788;76;50414;-78
2022/09/16 05:06:46;;;;;;;;;;;;;;;20.75;53.48;99797.62;2304272;76;51524;-78
2022/09/16 05:09:48;;;;;;;;;;;;;;;20.73;53.52;99793.82;2325772;76;51517;-78
2022/09/16 05:12:52;;;;;;;;;;;;;;;20.73;53.50;99791.62;2319166;76;50443;-77
2022/09/16 05:15:54;;;;;;;;;;;;;;;20.74;53.50;99792.77;2246649;78;51283;-78
2022/09/16 05:18:56;;;;;;;;;;;;;;;20.75;53.47;99797.09;2279020;77;50303;-78
2022/09/16 05:21:58;;;;;;;;;;;;;;;20.74;53.47;99798.15;2279091;78;50652;-78
2022/09/16 05:24:59;;;;;;;;;;;;;;;20.74;53.48;99796.80;2279081;78;51407;-78
2022/09/16 05:28:01;;;;;;;;;;;;;;;20.74;53.48;99782.55;2255352;78;51056;-78
2022/09/16 05:31:12;;;;;;;;;;;;;;;20.75;53.48;99798.96;2279022;77;51522;-78
2022/09/16 05:34:15;;;;;;;;;;;;;;;20.74;53.49;99794.11;2293257;76;50379;-78
2022/09/16 05:37:17;;;;;;;;;;;;;;;20.74;53.50;99800.02;2302961;76;51545;-77
2022/09/16 05:40:18;;;;;;;;;;;;;;;20.75;53.42;99797.09;2283442;75;50289;-79
2022/09/16 05:43:20;;;;;;;;;;;;;;;20.76;53.43;99798.76;2317344;76;51446;-78
2022/09/16 05:46:22;;;;;;;;;;;;;;;20.75;53.43;99791.72;2317749;76;50434;-78
2022/09/16 05:49:24;;;;;;;;;;;;;;;20.74;53.47;99802.70;2317744;76;51522;-77
2022/09/16 05:52:26;;;;;;;;;;;;;;;20.76;53.45;99792.56;2317815;76;50066;-78
2022/09/16 05:55:28;;;;;;;;;;;;;;;20.73;53.53;99807.76;2319474;76;49630;-78
2022/09/16 05:58:30;;;;;;;;;;;;;;;20.73;53.53;99801.04;2317590;76;51579;-78
2022/09/16 06:01:32;;;;;;;;;;;;;;;20.77;53.47;99800.92;2317816;76;50805;-77
2022/09/16 06:04:34;;;;;;;;;;;;;;;20.81;53.38;99806.17;2305544;76;50470;-78
2022/09/16 06:07:36;;;;;;;;;;;;;;;20.86;53.30;99809.85;2310454;76;50952;-77
2022/09/16 06:10:39;;;;;;;;;;;;;;;20.91;53.20;99797.10;2314497;76;50702;-78
2022/09/16 06:13:40;;;;;;;;;;;;;;;20.93;53.14;99804.41;2299385;75;50473;-78
2022/09/16 06:16:42;;;;;;;;;;;;;;;20.93;53.18;99790.95;2287297;77;50414;-77
2022/09/16 06:19:43;;;;;;;;;;;;;;;20.98;53.00;99804.57;2286599;77;49771;-78
2022/09/16 06:22:45;;;;;;;;;;;;;;;21.04;52.89;99798.33;2287116;78;50055;-77
2022/09/16 06:25:47;;;;;;;;;;;;;;;20.99;53.06;99798.17;2287134;77;50372;-77
2022/09/16 06:28:48;;;;;;;;;;;;;;;20.99;53.11;99791.94;2287006;78;51524;-77
2022/09/16 06:31:50;;;;;;;;;;;;;;;21.01;53.01;99797.93;2260270;78;50997;-78
2022/09/16 06:34:51;;;;;;;;;;;;;;;21.01;53.13;99796.58;2286639;76;50447;-77
2022/09/16 06:37:53;;;;;;;;;;;;;;;20.94;53.27;99804.72;2318578;74;50390;-77
2022/09/16 06:40:56;;;;;;;;;;;;;;;20.96;53.26;99790.55;2279143;78;51531;-77
2022/09/16 06:43:58;;;;;;;;;;;;;;;20.98;53.19;99791.12;2255574;78;52015;-77
2022/09/16 06:46:59;;;;;;;;;;;;;;;20.97;53.15;99791.36;2304861;76;51517;-77
2022/09/16 06:50:03;;;;;;;;;;;;;;;20.95;53.19;99796.95;2304914;76;51496;-77
2022/09/16 06:53:06;;;;;;;;;;;;;;;21.01;53.08;99792.55;2280129;76;51589;-77
2022/09/16 06:56:13;;;;;;;;;;;;;;;20.96;53.33;99793.23;2264872;78;52622;-77
2022/09/16 06:59:13;;;;;;;;;;;;;;;20.96;53.38;99793.73;2277943;77;22855;-77
2022/09/16 07:02:15;;;;;;;;;;;;;;;20.92;53.39;99797.92;2278857;78;50691;-78
2022/09/16 07:05:16;;;;;;;;;;;;;;;21.00;53.27;99793.08;2278719;78;50723;-78
2022/09/16 07:08:18;;;;;;;;;;;;;;;20.97;53.21;99800.25;2281096;77;49572;-78
2022/09/16 07:11:20;;;;;;;;;;;;;;;21.01;53.06;99804.13;2279252;78;50487;-77
2022/09/16 07:14:22;;;;;;;;;;;;;;;21.00;53.15;99807.05;2278932;77;51585;-76
2022/09/16 07:17:26;;;;;;;;;;;;;;;21.00;53.11;99814.59;2279409;78;51519;-77
2022/09/16 07:20:26;;;;;;;;;;;;;;;21.02;53.12;99807.13;2279263;78;22404;-77
2022/09/16 07:23:30;;;;;;;;;;;;;;;21.05;52.98;99816.63;2284187;77;51556;-77
2022/09/16 07:26:33;;;;;;;;;;;;;;;21.13;52.54;99812.84;2300235;76;22796;-78
2022/09/16 07:29:35;;;;;;;;;;;;;;;21.12;52.85;99808.48;2322117;76;50935;-77
2022/09/16 07:32:37;;;;;;;;;;;;;;;21.13;52.53;99798.86;2320086;76;51297;-76
2022/09/16 07:35:38;;;;;;;;;;;;;;;21.13;52.85;99800.73;2318442;76;51603;-77
2022/09/16 07:38:40;;;;;;;;;;;;;;;21.12;52.72;99807.99;2319650;76;51594;-76
2022/09/16 07:41:42;;;;;;;;;;;;;;;21.09;52.88;99809.75;2320306;76;50749;-76
2022/09/16 07:44:44;;;;;;;;;;;;;;;21.08;52.83;99806.24;2324656;75;51093;-76
2022/09/16 07:47:47;;;;;;;;;;;;;;;21.11;52.84;99807.67;2317443;76;51437;-76
2022/09/16 07:50:56;;;;;;;;;;;;;;;21.12;52.57;99811.17;2317884;76;54984;-77
2022/09/16 07:53:59;;;;;;;;;;;;;;;21.14;52.53;99805.88;2317086;76;50486;-76
2022/09/16 07:57:00;;;;;;;;;;;;;;;21.15;52.53;99810.77;2304498;76;49621;-77
2022/09/16 08:00:02;;;;;;;;;;;;;;;21.15;52.56;99803.51;2275876;78;50760;-77
2022/09/16 08:03:04;;;;;;;;;;;;;;;21.19;52.58;99814.11;2271130;78;50360;-78
2022/09/16 08:06:08;;;;;;;;;;;;;;;21.17;52.49;99816.72;2270464;78;51509;-77
2022/09/16 08:09:10;;;;;;;;;;;;;;;21.14;52.51;99820.67;2282408;76;50377;-77
2022/09/16 08:12:13;;;;;;;;;;;;;;;21.12;52.51;99820.59;2270805;78;50691;-77
2022/09/16 08:15:15;;;;;;;;;;;;;;;21.08;52.66;99819.69;2270844;78;51505;-78
2022/09/16 08:18:16;;;;;;;;;;;;;;;21.09;52.75;99828.08;2271032;78;51523;-77
2022/09/16 08:21:19;;;;;;;;;;;;;;;21.09;52.77;99814.63;2272455;78;52579;-77
2022/09/16 08:24:21;;;;;;;;;;;;;;;21.08;52.82;99823.73;2287216;77;52251;-77
2022/09/16 08:27:22;;;;;;;;;;;;;;;21.08;52.83;99822.38;2301298;76;50360;-77
2022/09/16 08:30:24;;;;;;;;;;;;;;;21.08;52.78;99830.45;2317827;76;50364;-78
2022/09/16 08:33:25;;;;;;;;;;;;;;;21.07;52.80;99825.31;2315818;76;49613;-77
2022/09/16 08:36:27;;;;;;;;;;;;;;;21.05;52.79;99816.11;2332877;75;50424;-77
2022/09/16 08:39:28;;;;;;;;;;;;;;;21.05;52.82;99822.83;2317815;76;50273;-78
2022/09/16 08:42:31;;;;;;;;;;;;;;;21.05;52.76;99822.83;2317687;76;50283;-77
2022/09/16 08:45:34;;;;;;;;;;;;;;;21.05;52.83;99816.11;2319857;76;51064;-78
2022/09/16 08:48:53;;;;;;;;;;;;;;;21.04;52.81;99816.31;2317921;76;51612;-78
2022/09/16 08:51:55;;;;;;;;;;;;;;;21.05;52.74;99816.11;2318056;76;50507;-77
2022/09/16 08:54:57;;;;;;;;;;;;;;;21.07;52.72;99809.17;2317670;76;50765;-78
2022/09/16 08:58:06;;;;;;;;;;;;;;;21.08;52.62;99812.97;2319145;76;51382;-77
2022/09/16 09:01:12;;;;;;;;;;;;;;;21.07;52.68;99818.06;2309650;76;50281;-78
2022/09/16 09:04:14;;;;;;;;;;;;;;;21.06;52.72;99819.08;2317123;76;50441;-78
2022/09/16 09:07:17;;;;;;;;;;;;;;;21.05;52.76;99809.38;2317800;76;50441;-77
2022/09/16 09:10:24;;;;;;;;;;;;;;;21.06;52.75;99812.89;2319746;76;52823;-77
2022/09/16 09:13:33;;;;;;;;;;;;;;;21.05;52.66;99808.03;2316773;76;55379;-77
2022/09/16 09:16:36;;;;;;;;;;;;;;;21.06;52.69;99812.89;2290686;76;50070;-77
2022/09/16 09:19:42;;;;;;;;;;;;;;;21.03;52.76;99816.84;2317841;76;50294;-77
2022/09/16 09:22:52;;;;;;;;;;;;;;;21.03;52.73;99808.77;2317746;76;51637;-77
2022/09/16 09:26:10;;;;;;;;;;;;;;;21.04;52.72;99804.20;2317552;76;50303;-76
2022/09/16 09:29:25;;;;;;;;;;;;;;;21.02;52.69;99808.48;2317650;76;51570;-77
2022/09/16 09:32:35;;;;;;;;;;;;;;;21.01;52.75;99804.66;2293577;76;52693;-76
2022/09/16 09:35:46;;;;;;;;;;;;;;;20.99;52.75;99799.52;2293256;76;51330;-76
2022/09/16 09:38:46;;;;;;;;;;;;;;;20.98;52.74;99797.84;2316715;76;22484;-77
2022/09/16 09:41:51;;;;;;;;;;;;;;;20.98;52.74;99797.84;2317656;76;51635;-76
2022/09/16 09:44:57;;;;;;;;;;;;;;;20.97;52.74;99797.55;2318344;76;51560;-76
2022/09/16 09:48:17;;;;;;;;;;;;;;;20.98;52.70;99792.47;2299078;76;52783;-76
2022/09/16 09:51:26;;;;;;;;;;;;;;;20.97;52.67;99793.52;2325637;76;50518;-76
2022/09/16 09:54:29;;;;;;;;;;;;;;;20.97;52.71;99785.98;2325507;76;50786;-77
2022/09/16 09:57:37;;;;;;;;;;;;;;;20.97;52.71;99790.83;2325741;76;50828;-77
2022/09/16 10:00:40;;;;;;;;;;;;;;;20.96;52.67;99787.86;2291793;76;51077;-77
2022/09/16 10:03:42;;;;;;;;;;;;;;;20.98;52.68;99783.58;2314782;76;51557;-78
2022/09/16 10:06:44;;;;;;;;;;;;;;;20.95;52.71;99788.88;2303298;76;50315;-77
2022/09/16 10:09:57;;;;;;;;;;;;;;;20.96;52.70;99781.13;2318843;76;51689;-77
2022/09/16 10:13:08;;;;;;;;;;;;;;;20.97;52.69;99778.73;2317803;76;51541;-78
2022/09/16 10:16:12;;;;;;;;;;;;;;;20.96;52.69;99778.44;2274705;77;51550;-78
2022/09/16 10:19:21;;;;;;;;;;;;;;;20.96;52.68;99772.22;2250513;78;50788;-77
2022/09/16 10:22:30;;;;;;;;;;;;;;;20.99;52.63;99771.27;2250919;79;50779;-77
2022/09/16 10:25:32;;;;;;;;;;;;;;;20.97;52.63;99769.84;2236615;78;49578;-77
2022/09/16 10:28:34;;;;;;;;;;;;;;;20.97;52.65;99772.53;2262078;78;51626;-77
2022/09/16 10:31:36;;;;;;;;;;;;;;;20.96;52.64;99775.75;2250873;79;51506;-77
2022/09/16 10:34:38;;;;;;;;;;;;;;;20.98;52.62;99780.36;2295321;76;50297;-77
2022/09/16 10:37:40;;;;;;;;;;;;;;;20.99;52.54;99773.96;2364320;74;50163;-75
2022/09/16 10:40:52;;;;;;;;;;;;;;;20.98;52.54;99773.64;2374428;75;50714;-77
2022/09/16 10:43:54;;;;;;;;;;;;;;;20.98;52.54;99770.95;2374264;75;50281;-76
2022/09/16 10:47:05;;;;;;;;;;;;;;;20.99;52.53;99775.80;2374455;75;52544;-77
2022/09/16 10:50:06;;;;;;;;;;;;;;;20.98;52.54;99773.64;2374745;74;22311;-77
2022/09/16 10:53:27;;;;;;;;;;;;;;;20.97;52.55;99784.11;2374421;75;50635;-77
2022/09/16 10:56:30;;;;;;;;;;;;;;;20.96;52.56;99773.56;2374368;74;50891;-77
2022/09/16 10:59:31;;;;;;;;;;;;;;;20.95;52.53;99778.13;2374356;75;50441;-77
2022/09/16 11:02:53;;;;;;;;;;;;;;;20.94;52.57;99771.11;2333778;75;50051;-77
2022/09/16 11:06:12;;;;;;;;;;;;;;;20.95;52.56;99774.09;2322491;75;52591;-77
2022/09/16 11:09:18;;;;;;;;;;;;;;;20.92;52.59;99767.81;2317772;76;50461;-77
2022/09/16 11:12:30;;;;;;;;;;;;;;;20.94;52.53;99759.01;2317109;76;50414;-77
2022/09/16 11:15:50;;;;;;;;;;;;;;;20.93;52.59;99760.03;2278265;77;51106;-77
2022/09/16 11:18:57;;;;;;;;;;;;;;;20.94;52.57;99759.01;2372064;75;51505;-77
2022/09/16 11:22:17;;;;;;;;;;;;;;;20.93;52.56;99758.69;2374407;74;50258;-78
2022/09/16 11:25:20;;;;;;;;;;;;;;;20.93;52.56;99758.69;2374211;74;50392;-77
2022/09/16 11:28:38;;;;;;;;;;;;;;;20.94;52.52;99747.44;2348986;75;49425;-77
2022/09/16 11:31:41;;;;;;;;;;;;;;;20.91;52.55;99740.63;2374434;75;51511;-77
2022/09/16 11:34:48;;;;;;;;;;;;;;;20.90;52.51;99751.06;2348648;75;51502;-77
2022/09/16 11:37:51;;;;;;;;;;;;;;;20.91;52.54;99743.31;2277122;78;50446;-77
2022/09/16 11:40:57;;;;;;;;;;;;;;;20.89;52.51;99746.75;2253755;78;50193;-77
2022/09/16 11:44:06;;;;;;;;;;;;;;;20.90;52.49;99749.72;2276932;78;51594;-77
2022/09/16 11:47:18;;;;;;;;;;;;;;;20.93;52.44;99743.89;2263050;78;51755;-76
2022/09/16 11:50:34;;;;;;;;;;;;;;;20.93;52.43;99743.89;2277140;78;51589;-77
2022/09/16 11:53:49;;;;;;;;;;;;;;;20.92;52.36;99738.23;2253806;78;49653;-77
2022/09/16 11:56:55;;;;;;;;;;;;;;;20.92;52.35;99734.20;2221694;78;51708;-77
2022/09/16 12:00:01;;;;;;;;;;;;;;;20.91;52.44;99729.88;2277703;78;50503;-78
2022/09/16 12:03:07;;;;;;;;;;;;;;;20.91;52.36;99716.42;2245593;76;49479;-77
2022/09/16 12:06:17;;;;;;;;;;;;;;;20.92;52.34;99738.23;2298160;75;51017;-76
2022/09/16 12:09:23;;;;;;;;;;;;;;;20.92;52.34;99724.78;2374449;75;51640;-76
2022/09/16 12:12:26;;;;;;;;;;;;;;;20.92;52.31;99719.41;2371929;75;50499;-77
2022/09/16 12:15:33;;;;;;;;;;;;;;;20.92;52.25;99721.28;2374209;74;51493;-77
2022/09/16 12:18:41;;;;;;;;;;;;;;;20.93;52.21;99722.38;2373106;75;50855;-77
2022/09/16 12:21:44;;;;;;;;;;;;;;;20.94;52.20;99716.51;2374399;75;22307;-76
2022/09/16 12:24:50;;;;;;;;;;;;;;;20.96;52.15;99715.73;2372603;74;50384;-76
2022/09/16 12:27:53;;;;;;;;;;;;;;;20.95;52.08;99705.52;2374355;75;50599;-76
2022/09/16 12:31:13;;;;;;;;;;;;;;;20.98;52.09;99701.55;2348559;74;49686;-77
2022/09/16 12:34:17;;;;;;;;;;;;;;;20.96;52.08;99702.30;2337305;75;51572;-77
2022/09/16 12:37:23;;;;;;;;;;;;;;;20.97;52.08;99700.74;2294002;76;50531;-77
2022/09/16 12:40:26;;;;;;;;;;;;;;;20.97;52.06;99696.70;2272012;78;50358;-76
2022/09/16 12:43:46;;;;;;;;;;;;;;;20.98;52.05;99691.61;2286649;77;50142;-77
2022/09/16 12:47:06;;;;;;;;;;;;;;;20.97;52.04;99685.13;2287277;78;51587;-76
2022/09/16 12:50:15;;;;;;;;;;;;;;;20.97;52.08;99687.83;2287214;78;51547;-77
2022/09/16 12:53:18;;;;;;;;;;;;;;;20.95;52.10;99681.84;2287073;78;50974;-77
2022/09/16 12:56:24;;;;;;;;;;;;;;;20.91;52.18;99689.53;2261229;78;53020;-77
2022/09/16 12:59:31;;;;;;;;;;;;;;;20.89;52.24;99686.24;2287222;78;50535;-76
2022/09/16 13:02:34;;;;;;;;;;;;;;;20.92;52.30;99691.70;2287262;78;51473;-76
2022/09/16 13:05:36;;;;;;;;;;;;;;;20.95;52.22;99693.41;2294052;76;51528;-76
2022/09/16 13:08:38;;;;;;;;;;;;;;;20.96;52.22;99693.73;2319657;76;52877;-77
2022/09/16 13:11:39;;;;;;;;;;;;;;;20.95;52.11;99689.37;2317649;76;52457;-76
2022/09/16 13:14:48;;;;;;;;;;;;;;;20.98;52.06;99681.39;2317578;76;51546;-76
2022/09/16 13:17:52;;;;;;;;;;;;;;;20.98;51.98;99682.20;2317867;76;50430;-78
2022/09/16 13:20:54;;;;;;;;;;;;;;;21.00;52.08;99665.33;2318108;76;22293;-78
2022/09/16 13:24:00;;;;;;;;;;;;;;;21.02;52.05;99668.63;2317584;76;55354;-78
2022/09/16 13:27:02;;;;;;;;;;;;;;;21.03;52.05;99664.88;2317793;76;50330;-77
2022/09/16 13:30:11;;;;;;;;;;;;;;;21.00;52.12;99663.98;2317868;76;50366;-78
2022/09/16 13:33:14;;;;;;;;;;;;;;;20.98;52.09;99655.31;2294283;76;49693;-78
2022/09/16 13:36:25;;;;;;;;;;;;;;;21.00;52.14;99659.95;2297387;76;50323;-77
2022/09/16 13:39:28;;;;;;;;;;;;;;;20.96;52.15;99663.30;2317679;76;22256;-79
2022/09/16 13:42:29;;;;;;;;;;;;;;;20.97;52.17;99653.67;2318048;76;51591;-78
2022/09/16 13:45:35;;;;;;;;;;;;;;;21.00;52.15;99665.33;2319760;76;51292;-78
2022/09/16 13:48:41;;;;;;;;;;;;;;;21.03;52.11;99647.39;2317879;76;51596;-79
2022/09/16 13:51:44;;;;;;;;;;;;;;;21.02;52.12;99649.80;2318268;76;50421;-79
2022/09/16 13:54:49;;;;;;;;;;;;;;;21.04;52.10;99647.71;2317916;76;51604;-78
2022/09/16 13:57:58;;;;;;;;;;;;;;;21.04;52.09;99650.41;2320193;76;51461;-78
2022/09/16 14:01:11;;;;;;;;;;;;;;;21.00;52.18;99647.84;2318144;76;50356;-78
2022/09/16 14:04:14;;;;;;;;;;;;;;;21.03;52.16;99639.33;2305549;76;50326;-78
2022/09/16 14:07:17;;;;;;;;;;;;;;;21.01;52.23;99637.91;2313454;75;50274;-78
2022/09/16 14:10:26;;;;;;;;;;;;;;;20.99;52.30;99650.75;2294116;76;49620;-78
2022/09/16 14:13:48;;;;;;;;;;;;;;;21.02;52.20;99644.42;2318126;76;51569;-78
2022/09/16 14:16:49;;;;;;;;;;;;;;;21.05;52.16;99643.97;2317823;76;51463;-78
2022/09/16 14:19:52;;;;;;;;;;;;;;;21.05;52.19;99637.23;2317682;76;51501;-78
2022/09/16 14:23:01;;;;;;;;;;;;;;;21.05;52.24;99639.93;2319627;76;51014;-78
2022/09/16 14:26:12;;;;;;;;;;;;;;;21.04;52.27;99632.07;2316154;76;51534;-78
2022/09/16 14:29:14;;;;;;;;;;;;;;;21.04;52.29;99636.95;2317686;76;51508;-78
2022/09/16 14:32:15;;;;;;;;;;;;;;;21.04;52.27;99633.42;2317684;76;50800;-78
2022/09/16 14:35:21;;;;;;;;;;;;;;;21.03;52.33;99628.56;2309621;76;49567;-77
2022/09/16 14:38:25;;;;;;;;;;;;;;;21.05;52.27;99631.86;2359795;75;51754;-78
2022/09/16 14:41:28;;;;;;;;;;;;;;;21.06;52.29;99631.33;2374284;74;51558;-78
2022/09/16 14:44:31;;;;;;;;;;;;;;;21.04;52.31;99622.16;2374742;74;51553;-78
2022/09/16 14:47:33;;;;;;;;;;;;;;;21.03;52.38;99622.38;2374391;75;50667;-78
2022/09/16 14:50:39;;;;;;;;;;;;;;;21.00;52.45;99623.64;2374412;75;50387;-78
2022/09/16 14:53:41;;;;;;;;;;;;;;;21.00;52.44;99620.95;2373264;75;51535;-78
2022/09/16 14:56:43;;;;;;;;;;;;;;;21.00;52.45;99630.37;2374464;74;50377;-78
2022/09/16 14:59:44;;;;;;;;;;;;;;;21.01;52.44;99623.11;2346833;75;51796;-78
2022/09/16 15:02:47;;;;;;;;;;;;;;;21.03;52.35;99615.12;2374546;75;51580;-79
2022/09/16 15:05:49;;;;;;;;;;;;;;;21.01;52.41;99614.52;2320304;75;51600;-78
2022/09/16 15:08:56;;;;;;;;;;;;;;;21.02;52.38;99613.48;2371349;75;51596;-78
2022/09/16 15:11:58;;;;;;;;;;;;;;;21.04;52.35;99612.75;2349549;74;49665;-78
2022/09/16 15:15:04;;;;;;;;;;;;;;;21.04;52.35;99614.59;2374327;74;50830;-78
2022/09/16 15:18:06;;;;;;;;;;;;;;;21.03;52.34;99611.09;2374503;75;50426;-78
2022/09/16 15:21:09;;;;;;;;;;;;;;;21.02;52.35;99614.83;2374367;75;51558;-78
2022/09/16 15:24:19;;;;;;;;;;;;;;;21.01;52.39;99611.83;2376277;74;49507;-79
2022/09/16 15:27:21;;;;;;;;;;;;;;;21.01;52.32;99607.80;2374671;75;50406;-78
2022/09/16 15:30:24;;;;;;;;;;;;;;;21.03;52.32;99607.58;2374473;75;51535;-77
2022/09/16 15:33:32;;;;;;;;;;;;;;;21.04;52.31;99605.17;2362416;75;50381;-78
2022/09/16 15:36:35;;;;;;;;;;;;;;;21.03;52.33;99608.92;2293950;76;50769;-77
2022/09/16 15:39:37;;;;;;;;;;;;;;;21.00;52.35;99606.16;2296739;76;51661;-77
2022/09/16 15:42:39;;;;;;;;;;;;;;;21.02;52.34;99609.45;2297244;76;50631;-78
2022/09/16 15:45:41;;;;;;;;;;;;;;;21.01;52.34;99601.06;2311276;76;51213;-77
2022/09/16 15:48:47;;;;;;;;;;;;;;;21.01;52.33;99596.22;2297260;77;50755;-77
2022/09/16 15:51:50;;;;;;;;;;;;;;;21.01;52.34;99599.72;2297320;77;52446;-77
2022/09/16 15:54:53;;;;;;;;;;;;;;;21.00;52.38;99604.00;2297234;76;50333;-78
2022/09/16 15:57:59;;;;;;;;;;;;;;;20.99;52.33;99605.88;2296958;76;50435;-77
2022/09/16 16:01:15;;;;;;;;;;;;;;;20.98;52.36;99603.40;2285509;77;51109;-77
2022/09/16 16:04:24;;;;;;;;;;;;;;;20.99;52.38;99596.96;2300127;75;50033;-77